| time (UTC) | temp F | wind direction | speed knots | gust knots | rain 1hr in | rain 24hr in | rain mn in | humidity % | barometer mb |
| 20260510060035 | 57 | 254 | 0.0 | 0.0 | 0.00 | 0.00 | 0.00 | 86 | 1009.8 |
| 20260510054537 | 56 | 251 | 0.0 | 6.1 | 0.00 | 0.00 | 0.00 | 88 | 1009.9 |
| 20260510053038 | 53 | 53 | 0.0 | 1.7 | 0.00 | 0.00 | 0.00 | 85 | 1009.8 |
| 20260510051545 | 54 | 57 | 0.0 | 0.0 | 0.00 | 0.00 | 0.00 | 82 | 1009.7 |
| 20260510050040 | 55 | 57 | 0.0 | 0.0 | 0.00 | 0.00 | 0.00 | 82 | 1009.6 |
| 20260510044539 | 56 | 57 | 0.0 | 0.0 | 0.00 | 0.00 | 0.00 | 81 | 1009.5 |
| 20260510043046 | 58 | 57 | 0.0 | 0.0 | 0.00 | 0.00 | 0.00 | 78 | 1009.4 |
| 20260510041542 | 59 | 57 | 0.0 | 0.0 | 0.00 | 0.00 | 0.00 | 77 | 1009.4 |
| 20260510040050 | 60 | 57 | 0.0 | 0.0 | 0.00 | 0.00 | 0.00 | 75 | 1009.2 |
| 20260510034547 | 62 | 57 | 0.0 | 0.0 | 0.00 | 0.00 | 0.00 | 73 | 1009.2 |
| 20260510033053 | 64 | 57 | 0.0 | 0.0 | 0.00 | 0.00 | 0.00 | 69 | 1009.3 |
| 20260510031553 | 65 | 57 | 0.0 | 0.0 | 0.00 | 0.00 | 0.00 | 67 | 1009.3 |
| 20260510030048 | 66 | 57 | 0.0 | 0.9 | 0.00 | 0.00 | 0.00 | 66 | 1009.2 |
| 20260510024545 | 66 | 57 | 0.0 | 0.9 | 0.00 | 0.00 | 0.00 | 61 | 1009.1 |
| 20260510023033 | 66 | 57 | 0.0 | 1.7 | 0.00 | 0.00 | 0.00 | 61 | 1009.4 |
| 20260510021547 | 67 | 57 | 1.7 | 4.3 | 0.00 | 0.00 | 0.00 | 61 | 1009.3 |
| 20260510020034 | 67 | 61 | 1.7 | 4.3 | 0.00 | 0.00 | 0.00 | 61 | 1009.3 |
| 20260510014531 | 68 | 55 | 0.9 | 4.3 | 0.00 | 0.00 | 0.00 | 63 | 1009.5 |
| 20260510013032 | 68 | 49 | 0.9 | 4.3 | 0.00 | 0.00 | 0.00 | 63 | 1009.8 |
| 20260510011540 | 68 | 55 | 1.7 | 6.1 | 0.00 | 0.00 | 0.00 | 65 | 1009.9 |
| 20260510010033 | 68 | 51 | 4.3 | 7.8 | 0.00 | 0.00 | 0.00 | 62 | 1010.0 |
| 20260510004538 | 70 | 49 | 2.6 | 6.1 | 0.00 | 0.00 | 0.00 | 60 | 1010.1 |
| 20260510003034 | 71 | 58 | 1.7 | 4.3 | 0.00 | 0.00 | 0.00 | 61 | 1010.4 |
| 20260510001534 | 72 | 63 | 0.0 | 2.6 | 0.00 | 0.00 | 0.00 | 58 | 1010.5 |
| 20260510000058 | 72 | 65 | 0.9 | 2.6 | 0.00 | 0.00 | 0.00 | 58 | 1010.4 |
| 20260509234549 | 72 | 67 | 0.0 | 5.2 | 0.00 | 0.00 | 0.00 | 57 | 1010.7 |
| 20260509233040 | 72 | 342 | 0.0 | 1.7 | 0.00 | 0.00 | 0.00 | 59 | 1010.8 |
| 20260509231543 | 71 | 338 | 0.9 | 3.5 | 0.00 | 0.00 | 0.00 | 60 | 1011.0 |
| 20260509230041 | 72 | 79 | 0.9 | 4.3 | 0.00 | 0.00 | 0.00 | 57 | 1011.2 |
| 20260509224541 | 72 | 84 | 0.9 | 2.6 | 0.00 | 0.00 | 0.00 | 57 | 1011.5 |
| 20260509223044 | 71 | 80 | 0.9 | 3.5 | 0.00 | 0.00 | 0.00 | 57 | 1011.4 |
| 20260509221546 | 72 | 165 | 1.7 | 5.2 | 0.00 | 0.00 | 0.00 | 60 | 1011.8 |
| 20260509220027 | 72 | 280 | 0.9 | 4.3 | 0.00 | 0.00 | 0.00 | 60 | 1012.0 |
| 20260509214529 | 71 | 295 | 1.7 | 6.1 | 0.00 | 0.00 | 0.00 | 61 | 1012.2 |
| 20260509213027 | 70 | 50 | 0.0 | 3.5 | 0.00 | 0.00 | 0.00 | 60 | 1012.5 |
| 20260509211526 | 69 | 298 | 1.7 | 5.2 | 0.00 | 0.00 | 0.00 | 61 | 1012.5 |
| 20260509210037 | 69 | 5 | 0.9 | 2.6 | 0.00 | 0.00 | 0.00 | 60 | 1012.5 |
| 20260509204535 | 68 | 305 | 0.0 | 2.6 | 0.00 | 0.00 | 0.00 | 65 | 1012.7 |
| 20260509203029 | 68 | 274 | 0.9 | 6.1 | 0.00 | 0.00 | 0.00 | 63 | 1012.9 |
| 20260509201537 | 69 | 65 | 0.9 | 2.6 | 0.00 | 0.00 | 0.00 | 65 | 1012.9 |
| 20260509200035 | 68 | 26 | 0.0 | 2.6 | 0.00 | 0.00 | 0.00 | 65 | 1013.1 |
| 20260509194536 | 68 | 278 | 0.9 | 4.3 | 0.00 | 0.00 | 0.00 | 67 | 1013.3 |
| 20260509193034 | 68 | 109 | 0.0 | 2.6 | 0.00 | 0.00 | 0.00 | 69 | 1013.4 |
| 20260509191534 | 67 | 273 | 2.6 | 6.1 | 0.00 | 0.00 | 0.00 | 70 | 1013.9 |
| 20260509190036 | 66 | 266 | 2.6 | 6.1 | 0.00 | 0.00 | 0.00 | 70 | 1014.0 |
| 20260509184553 | 65 | 294 | 0.9 | 5.2 | 0.00 | 0.00 | 0.00 | 71 | 1014.1 |
| 20260509183035 | 64 | 272 | 0.9 | 3.5 | 0.00 | 0.00 | 0.00 | 72 | 1014.2 |
| 20260509181546 | 64 | 306 | 0.9 | 3.5 | 0.00 | 0.00 | 0.00 | 73 | 1014.2 |
| 20260509180039 | 63 | 279 | 0.0 | 5.2 | 0.00 | 0.00 | 0.00 | 77 | 1014.4 |
| 20260509174539 | 62 | 262 | 0.9 | 6.1 | 0.00 | 0.00 | 0.00 | 76 | 1014.3 |
| 20260509173023 | 62 | 44 | 1.7 | 4.3 | 0.00 | 0.00 | 0.00 | 79 | 1014.4 |
| 20260509171525 | 60 | 348 | 0.9 | 3.5 | 0.00 | 0.00 | 0.00 | 84 | 1014.7 |
| 20260509170025 | 59 | 320 | 0.9 | 3.5 | 0.00 | 0.00 | 0.00 | 88 | 1014.8 |
| 20260509164524 | 57 | 318 | 0.0 | 3.5 | 0.00 | 0.00 | 0.00 | 92 | 1014.7 |
| 20260509163025 | 55 | 296 | 0.9 | 3.5 | 0.00 | 0.00 | 0.00 | 94 | 1014.8 |
| 20260509161529 | 54 | 293 | 0.9 | 4.3 | 0.00 | 0.00 | 0.00 | 95 | 1015.0 |
| 20260509160034 | 53 | 301 | 0.0 | 0.0 | 0.00 | 0.00 | 0.00 | 95 | 1015.1 |
| 20260509154532 | 52 | 300 | 0.0 | 0.0 | 0.00 | 0.00 | 0.00 | 95 | 1015.3 |
| 20260509153042 | 51 | 291 | 0.0 | 0.0 | 0.00 | 0.00 | 0.00 | 95 | 1015.4 |
| 20260509151530 | 50 | 290 | 0.0 | 0.0 | 0.00 | 0.00 | 0.00 | 95 | 1015.6 |
| 20260509150039 | 48 | 289 | 0.0 | 0.0 | 0.00 | 0.00 | 0.00 | 95 | 1015.8 |
| 20260509144548 | 48 | 289 | 0.0 | 0.0 | 0.00 | 0.00 | 0.00 | 95 | 1015.8 |
| 20260509143029 | 47 | 289 | 0.0 | 0.0 | 0.00 | 0.00 | 0.00 | 94 | 1015.7 |
| 20260509141534 | 46 | 289 | 0.0 | 0.0 | 0.00 | 0.00 | 0.00 | 94 | 1015.6 |
| 20260509140033 | 46 | 289 | 0.0 | 0.0 | 0.00 | 0.00 | 0.00 | 94 | 1015.7 |
| 20260509134533 | 45 | 289 | 0.0 | 0.0 | 0.00 | 0.00 | 0.00 | 94 | 1015.6 |
| 20260509133019 | 44 | 289 | 0.0 | 0.0 | 0.00 | 0.00 | 0.00 | 94 | 1015.5 |
| 20260509131515 | 43 | 289 | 0.0 | 0.0 | 0.00 | 0.00 | 0.00 | 94 | 1015.5 |
| 20260509130018 | 43 | 289 | 0.0 | 0.0 | 0.00 | 0.00 | 0.00 | 93 | 1015.7 |
| 20260509124517 | 44 | 289 | 0.0 | 0.0 | 0.00 | 0.00 | 0.00 | 93 | 1015.8 |
| 20260509123020 | 45 | 289 | 0.0 | 0.0 | 0.00 | 0.00 | 0.00 | 93 | 1015.7 |
| 20260509121537 | 46 | 289 | 0.0 | 0.0 | 0.00 | 0.00 | 0.00 | 93 | 1015.8 |
| 20260509120020 | 46 | 289 | 0.0 | 0.0 | 0.00 | 0.00 | 0.00 | 93 | 1015.9 |
| 20260509114531 | 47 | 289 | 0.0 | 0.0 | 0.00 | 0.00 | 0.00 | 93 | 1015.8 |
| 20260509113031 | 47 | 289 | 0.0 | 0.0 | 0.00 | 0.00 | 0.00 | 93 | 1016.2 |
| 20260509111524 | 46 | 289 | 0.0 | 0.0 | 0.00 | 0.00 | 0.00 | 93 | 1016.3 |
| 20260509110029 | 46 | 289 | 0.0 | 0.0 | 0.00 | 0.00 | 0.00 | 93 | 1016.4 |
| 20260509104538 | 46 | 289 | 0.0 | 0.0 | 0.00 | 0.00 | 0.00 | 93 | 1016.4 |
| 20260509103009 | 45 | 289 | 0.0 | 0.0 | 0.00 | 0.00 | 0.00 | 93 | 1016.3 |
| 20260509101510 | 45 | 289 | 0.0 | 0.0 | 0.00 | 0.00 | 0.00 | 93 | 1016.3 |
| 20260509100015 | 44 | 289 | 0.0 | 0.0 | 0.00 | 0.00 | 0.00 | 93 | 1016.5 |
| 20260509094526 | 43 | 289 | 0.0 | 0.0 | 0.00 | 0.00 | 0.00 | 92 | 1016.5 |
| 20260509093014 | 43 | 289 | 0.0 | 0.0 | 0.00 | 0.00 | 0.00 | 92 | 1016.5 |
| 20260509091533 | 43 | 289 | 0.0 | 0.0 | 0.00 | 0.00 | 0.00 | 92 | 1016.6 |
| 20260509090022 | 43 | 289 | 0.0 | 0.0 | 0.00 | 0.00 | 0.00 | 91 | 1016.6 |
| 20260509084523 | 43 | 289 | 0.0 | 0.0 | 0.00 | 0.00 | 0.00 | 91 | 1016.7 |
| 20260509083022 | 44 | 289 | 0.0 | 0.0 | 0.00 | 0.00 | 0.00 | 91 | 1016.8 |
| 20260509081527 | 44 | 289 | 0.0 | 0.0 | 0.00 | 0.00 | 0.00 | 90 | 1016.8 |
| 20260509080007 | 45 | 289 | 0.0 | 0.0 | 0.00 | 0.00 | 0.00 | 90 | 1016.7 |
| 20260509074507 | 45 | 288 | 0.0 | 0.0 | 0.00 | 0.00 | 0.00 | 90 | 1016.6 |
| 20260509073011 | 46 | 288 | 0.0 | 0.0 | 0.00 | 0.00 | 0.00 | 90 | 1016.6 |
| 20260509071513 | 46 | 288 | 0.0 | 0.0 | 0.00 | 0.00 | 0.00 | 89 | 1016.6 |
| 20260509070013 | 47 | 288 | 0.0 | 0.0 | 0.00 | 0.00 | 0.00 | 88 | 1016.5 |
| 20260509064515 | 48 | 288 | 0.0 | 0.0 | 0.00 | 0.00 | 0.00 | 88 | 1016.6 |
| 20260509063025 | 49 | 288 | 0.0 | 0.0 | 0.00 | 0.00 | 0.00 | 88 | 1016.6 |
| 20260509061516 | 49 | 288 | 0.0 | 0.0 | 0.00 | 0.00 | 0.00 | 88 | 1016.5 |